Airfield :
LOGIN :

Register | Disclaimer

   EN    FR    IT 

 










Legend :    VFR   Marginal VFR   IFR   Intensive IFR   Very Intensive IFR
Visi :
Ceiling :
>= 8 km
>= 3000ft
5 to 8 km
1000 to 3000 ft
1500m to 5 km
500 to 1000 ft
800 to 1500m
200 to 500 ft
< 800m
< 200 ft
Symbols :   Thunderstorms  Fog  Heavy snow  Heavy precipitations  Wind > 20 kt
SIGMETs :     Misc.  Thunderstorms  Icing  Turbulence  Mountain Waves  Volcanic Ashes







- Airport Elevation : 2776 ft
- IATA code : VLL


LEVD - Valladolid

CURRENT METAR :
  • 251800Z 28016KT 260V320 9999 FEW050TCU 17/05 Q1007

EXPIRED METARs :
  • 251730Z 28017KT 250V320 9999 FEW050TCU 17/05 Q1007
  • 251700Z 26018G29KT 230V300 CAVOK 19/03 Q1006
  • 251630Z 26016G26KT 230V290 CAVOK 19/04 Q1007
  • 251600Z 26018KT 240V300 CAVOK 19/04 Q1007
  • 251530Z 26018G28KT 230V290 CAVOK 20/04 Q1007

TAF TAF LEVD
Valid from the 25 at 18:00 until the 26 at 18:00 UTC


251700Z 2518/2618 34012KT 9999 FEW030 TX17/2518Z TN03/2606Z
BECMG 2520/2522 02008KT
TEMPO 2606/2608 BKN012
No reported NOTAMs for that airfield.
3 SIGMETs reported for the Madrid FIR (LECM) :
 
Embedded thunderstorms
LECM SIGMET 12 VALID 251800/252000 LEVA
LECM MADRID FIR/UIR EMBD TS OBS AT 1733Z E OF LINE N4120 W00450 - N3710 W002 TOP FL340 MOV NE NC=
Embedded thunderstorms
LECM SIGMET 11 VALID 251637/251800 LEVA
LECM MADRID FIR/UIR EMBD TS OBS AT 1616Z WI N4120 W004 - N4020 W00320 - N3940 W005 - N4050 W00550 TOP FL340 MOV NE NC=
Embedded thunderstorms
LECM SIGMET 10 VALID 251600/251800 LEVA
LECM MADRID FIR/UIR EMBD TS OBS AT 1538Z E OF LINE N4310 W00410 - N3730 W00230 TOP FL340 MOV NE NC=



MET'MAP, your aeronautical weather chart ! - Copyright ORBIFLY December 2007 - Disclaimer

ORBIFLY MET'MAP TEAM :

Programming & Development : Alexandra Zaïnal
Concept & Development : Baudouin d'Aumeries
Co-Development & Prog : Marc-Olivier Méhu
Technical & hardware support : Manuel Goepfert

Contact : metmap@orbifly.com




SOURCES & CREDITS :

   NOAA